sensor_id;sensor_type;location;lat;lon;timestamp;temperature;humidity
5842;DHT22;2947;52.276;9.946;2023-08-30T00:00:20;14.60;1.00
5842;DHT22;2947;52.276;9.946;2023-08-30T00:02:48;14.50;1.00
5842;DHT22;2947;52.276;9.946;2023-08-30T00:05:14;14.50;1.00
5842;DHT22;2947;52.276;9.946;2023-08-30T00:07:40;14.50;1.00
5842;DHT22;2947;52.276;9.946;2023-08-30T00:10:07;14.50;1.00
5842;DHT22;2947;52.276;9.946;2023-08-30T00:12:33;14.50;1.00
5842;DHT22;2947;52.276;9.946;2023-08-30T00:14:59;14.60;1.00
5842;DHT22;2947;52.276;9.946;2023-08-30T00:17:25;14.50;1.00
5842;DHT22;2947;52.276;9.946;2023-08-30T00:19:51;14.50;1.00
5842;DHT22;2947;52.276;9.946;2023-08-30T00:22:18;14.60;1.00
5842;DHT22;2947;52.276;9.946;2023-08-30T00:24:44;14.70;1.00
5842;DHT22;2947;52.276;9.946;2023-08-30T00:27:10;15.00;1.00
5842;DHT22;2947;52.276;9.946;2023-08-30T00:29:37;14.30;1.00
5842;DHT22;2947;52.276;9.946;2023-08-30T00:32:03;14.30;1.00
5842;DHT22;2947;52.276;9.946;2023-08-30T00:34:29;13.80;1.00
5842;DHT22;2947;52.276;9.946;2023-08-30T00:36:55;14.10;2.40
5842;DHT22;2947;52.276;9.946;2023-08-30T00:39:21;15.40;34.50
5842;DHT22;2947;52.276;9.946;2023-08-30T00:41:46;14.00;12.60
5842;DHT22;2947;52.276;9.946;2023-08-30T00:44:12;14.10;19.50
5842;DHT22;2947;52.276;9.946;2023-08-30T00:46:38;14.10;18.50
5842;DHT22;2947;52.276;9.946;2023-08-30T00:49:04;14.10;46.80
5842;DHT22;2947;52.276;9.946;2023-08-30T00:51:30;14.00;38.10
5842;DHT22;2947;52.276;9.946;2023-08-30T00:53:59;14.00;99.90
5842;DHT22;2947;52.276;9.946;2023-08-30T00:56:27;14.00;99.90
5842;DHT22;2947;52.276;9.946;2023-08-30T00:58:53;14.00;99.90
5842;DHT22;2947;52.276;9.946;2023-08-30T01:01:19;13.90;99.90
5842;DHT22;2947;52.276;9.946;2023-08-30T01:03:45;13.90;99.90
5842;DHT22;2947;52.276;9.946;2023-08-30T01:06:11;13.80;99.90
5842;DHT22;2947;52.276;9.946;2023-08-30T01:08:38;13.80;99.90
5842;DHT22;2947;52.276;9.946;2023-08-30T01:11:22;13.80;99.90
5842;DHT22;2947;52.276;9.946;2023-08-30T01:14:25;13.70;99.90
5842;DHT22;2947;52.276;9.946;2023-08-30T01:17:14;13.70;99.90
5842;DHT22;2947;52.276;9.946;2023-08-30T01:22:57;13.70;99.90
5842;DHT22;2947;52.276;9.946;2023-08-30T01:28:24;13.60;99.90
5842;DHT22;2947;52.276;9.946;2023-08-30T01:30:52;13.60;99.90
5842;DHT22;2947;52.276;9.946;2023-08-30T01:33:23;13.60;99.90
5842;DHT22;2947;52.276;9.946;2023-08-30T01:35:50;13.60;99.90
5842;DHT22;2947;52.276;9.946;2023-08-30T01:38:17;14.20;99.90
5842;DHT22;2947;52.276;9.946;2023-08-30T01:40:44;13.60;99.90
5842;DHT22;2947;52.276;9.946;2023-08-30T01:43:12;15.40;99.90
5842;DHT22;2947;52.276;9.946;2023-08-30T01:45:41;13.60;99.90
5842;DHT22;2947;52.276;9.946;2023-08-30T01:48:10;13.60;99.90
5842;DHT22;2947;52.276;9.946;2023-08-30T01:50:42;13.60;99.90
5842;DHT22;2947;52.276;9.946;2023-08-30T01:53:10;13.60;99.90
5842;DHT22;2947;52.276;9.946;2023-08-30T01:55:37;13.60;99.90
5842;DHT22;2947;52.276;9.946;2023-08-30T01:58:04;13.60;99.90
5842;DHT22;2947;52.276;9.946;2023-08-30T02:00:30;13.60;99.90
5842;DHT22;2947;52.276;9.946;2023-08-30T02:02:56;13.50;99.90
5842;DHT22;2947;52.276;9.946;2023-08-30T02:05:22;13.60;99.90
5842;DHT22;2947;52.276;9.946;2023-08-30T02:07:58;13.60;99.90
5842;DHT22;2947;52.276;9.946;2023-08-30T02:10:35;13.60;99.90
5842;DHT22;2947;52.276;9.946;2023-08-30T02:13:04;13.60;99.90
5842;DHT22;2947;52.276;9.946;2023-08-30T02:15:32;13.60;99.90
5842;DHT22;2947;52.276;9.946;2023-08-30T02:17:59;13.50;99.90
5842;DHT22;2947;52.276;9.946;2023-08-30T02:20:25;13.50;99.90
5842;DHT22;2947;52.276;9.946;2023-08-30T02:22:51;13.60;99.90
5842;DHT22;2947;52.276;9.946;2023-08-30T02:25:17;13.60;99.90
5842;DHT22;2947;52.276;9.946;2023-08-30T02:27:43;13.50;99.90
5842;DHT22;2947;52.276;9.946;2023-08-30T02:30:09;13.50;99.90
5842;DHT22;2947;52.276;9.946;2023-08-30T02:32:34;13.50;99.90
5842;DHT22;2947;52.276;9.946;2023-08-30T02:35:01;13.50;99.90
5842;DHT22;2947;52.276;9.946;2023-08-30T02:37:27;13.50;99.90
5842;DHT22;2947;52.276;9.946;2023-08-30T02:39:53;13.50;99.90
5842;DHT22;2947;52.276;9.946;2023-08-30T02:42:18;13.50;99.90
5842;DHT22;2947;52.276;9.946;2023-08-30T02:44:44;13.50;99.90
5842;DHT22;2947;52.276;9.946;2023-08-30T02:47:10;13.50;99.90
5842;DHT22;2947;52.276;9.946;2023-08-30T02:49:36;13.40;99.90
5842;DHT22;2947;52.276;9.946;2023-08-30T02:52:02;13.30;99.90
5842;DHT22;2947;52.276;9.946;2023-08-30T02:54:27;13.20;99.90
5842;DHT22;2947;52.276;9.946;2023-08-30T02:56:53;13.10;99.90
5842;DHT22;2947;52.276;9.946;2023-08-30T02:59:19;13.00;99.90
5842;DHT22;2947;52.276;9.946;2023-08-30T03:01:44;13.90;99.90
5842;DHT22;2947;52.276;9.946;2023-08-30T03:04:10;12.90;99.90
5842;DHT22;2947;52.276;9.946;2023-08-30T03:06:36;12.80;99.90
5842;DHT22;2947;52.276;9.946;2023-08-30T03:09:02;12.80;99.90
5842;DHT22;2947;52.276;9.946;2023-08-30T03:11:28;12.70;99.90
5842;DHT22;2947;52.276;9.946;2023-08-30T03:13:54;12.60;99.90
5842;DHT22;2947;52.276;9.946;2023-08-30T03:16:20;12.50;99.90
5842;DHT22;2947;52.276;9.946;2023-08-30T03:18:46;12.40;99.90
5842;DHT22;2947;52.276;9.946;2023-08-30T03:21:12;12.30;99.90
5842;DHT22;2947;52.276;9.946;2023-08-30T03:23:39;12.30;99.90
5842;DHT22;2947;52.276;9.946;2023-08-30T03:26:12;12.30;99.90
5842;DHT22;2947;52.276;9.946;2023-08-30T03:28:40;12.30;99.90
5842;DHT22;2947;52.276;9.946;2023-08-30T03:31:19;12.30;99.90
5842;DHT22;2947;52.276;9.946;2023-08-30T03:33:47;12.30;99.90
5842;DHT22;2947;52.276;9.946;2023-08-30T03:36:15;12.20;99.90
5842;DHT22;2947;52.276;9.946;2023-08-30T03:38:42;12.20;99.90
5842;DHT22;2947;52.276;9.946;2023-08-30T03:41:10;12.20;99.90
5842;DHT22;2947;52.276;9.946;2023-08-30T03:43:36;12.20;99.90
5842;DHT22;2947;52.276;9.946;2023-08-30T03:46:01;12.20;99.90
5842;DHT22;2947;52.276;9.946;2023-08-30T03:48:31;12.20;99.90
5842;DHT22;2947;52.276;9.946;2023-08-30T03:50:57;12.20;99.90
5842;DHT22;2947;52.276;9.946;2023-08-30T03:53:24;12.20;99.90
5842;DHT22;2947;52.276;9.946;2023-08-30T03:55:50;12.20;99.90
5842;DHT22;2947;52.276;9.946;2023-08-30T03:58:17;12.10;99.90
5842;DHT22;2947;52.276;9.946;2023-08-30T04:00:44;11.70;99.90
5842;DHT22;2947;52.276;9.946;2023-08-30T04:03:10;12.20;99.90
5842;DHT22;2947;52.276;9.946;2023-08-30T04:05:36;13.30;99.90
5842;DHT22;2947;52.276;9.946;2023-08-30T04:08:03;12.50;99.90
5842;DHT22;2947;52.276;9.946;2023-08-30T04:10:37;12.10;99.90
5842;DHT22;2947;52.276;9.946;2023-08-30T04:13:05;12.00;99.90
5842;DHT22;2947;52.276;9.946;2023-08-30T04:15:33;12.10;99.90
5842;DHT22;2947;52.276;9.946;2023-08-30T04:18:03;12.00;99.90
5842;DHT22;2947;52.276;9.946;2023-08-30T04:20:30;12.00;99.90
5842;DHT22;2947;52.276;9.946;2023-08-30T04:22:57;12.00;99.90
5842;DHT22;2947;52.276;9.946;2023-08-30T04:25:27;12.00;99.90
5842;DHT22;2947;52.276;9.946;2023-08-30T04:27:53;12.00;99.90
5842;DHT22;2947;52.276;9.946;2023-08-30T04:30:19;12.50;99.90
5842;DHT22;2947;52.276;9.946;2023-08-30T04:32:44;12.00;99.90
5842;DHT22;2947;52.276;9.946;2023-08-30T04:35:10;12.00;99.90
5842;DHT22;2947;52.276;9.946;2023-08-30T04:37:36;12.00;99.90
5842;DHT22;2947;52.276;9.946;2023-08-30T04:40:04;12.00;99.90
5842;DHT22;2947;52.276;9.946;2023-08-30T04:42:36;11.90;99.90
5842;DHT22;2947;52.276;9.946;2023-08-30T04:45:03;11.90;99.90
5842;DHT22;2947;52.276;9.946;2023-08-30T04:47:30;11.80;99.90
5842;DHT22;2947;52.276;9.946;2023-08-30T04:49:56;11.90;99.90
5842;DHT22;2947;52.276;9.946;2023-08-30T04:52:22;11.90;99.90
5842;DHT22;2947;52.276;9.946;2023-08-30T04:54:47;11.80;99.90
5842;DHT22;2947;52.276;9.946;2023-08-30T04:57:16;11.80;99.90
5842;DHT22;2947;52.276;9.946;2023-08-30T04:59:43;11.80;99.90
5842;DHT22;2947;52.276;9.946;2023-08-30T05:02:09;11.90;99.90
5842;DHT22;2947;52.276;9.946;2023-08-30T05:04:35;11.80;99.90
5842;DHT22;2947;52.276;9.946;2023-08-30T05:07:01;11.80;99.90
5842;DHT22;2947;52.276;9.946;2023-08-30T05:09:28;11.80;99.90
5842;DHT22;2947;52.276;9.946;2023-08-30T05:11:54;11.80;99.90
5842;DHT22;2947;52.276;9.946;2023-08-30T05:14:20;11.90;99.90
5842;DHT22;2947;52.276;9.946;2023-08-30T05:16:46;12.00;99.90
5842;DHT22;2947;52.276;9.946;2023-08-30T05:19:12;12.00;99.90
5842;DHT22;2947;52.276;9.946;2023-08-30T05:21:37;12.10;99.90
5842;DHT22;2947;52.276;9.946;2023-08-30T05:24:04;12.20;99.90
5842;DHT22;2947;52.276;9.946;2023-08-30T05:26:32;12.30;99.90
5842;DHT22;2947;52.276;9.946;2023-08-30T05:28:58;12.40;99.90
5842;DHT22;2947;52.276;9.946;2023-08-30T05:31:24;12.40;99.90
5842;DHT22;2947;52.276;9.946;2023-08-30T05:33:50;12.50;99.90
5842;DHT22;2947;52.276;9.946;2023-08-30T05:36:17;12.50;99.90
5842;DHT22;2947;52.276;9.946;2023-08-30T05:38:42;12.50;99.90
5842;DHT22;2947;52.276;9.946;2023-08-30T05:41:08;12.60;99.90
5842;DHT22;2947;52.276;9.946;2023-08-30T05:43:36;12.70;99.90
5842;DHT22;2947;52.276;9.946;2023-08-30T05:46:02;12.70;99.90
5842;DHT22;2947;52.276;9.946;2023-08-30T05:48:29;12.70;99.90
5842;DHT22;2947;52.276;9.946;2023-08-30T05:50:55;14.20;99.90
5842;DHT22;2947;52.276;9.946;2023-08-30T05:53:20;12.90;99.90
5842;DHT22;2947;52.276;9.946;2023-08-30T05:55:46;13.00;99.90
5842;DHT22;2947;52.276;9.946;2023-08-30T05:58:12;13.00;99.90
5842;DHT22;2947;52.276;9.946;2023-08-30T06:00:39;13.10;99.90
5842;DHT22;2947;52.276;9.946;2023-08-30T06:03:05;13.20;99.90
5842;DHT22;2947;52.276;9.946;2023-08-30T06:05:30;13.20;99.90
5842;DHT22;2947;52.276;9.946;2023-08-30T06:07:56;13.30;99.90
5842;DHT22;2947;52.276;9.946;2023-08-30T06:10:23;13.40;99.90
5842;DHT22;2947;52.276;9.946;2023-08-30T06:12:48;13.50;99.90
5842;DHT22;2947;52.276;9.946;2023-08-30T06:15:14;13.50;99.90
5842;DHT22;2947;52.276;9.946;2023-08-30T06:17:40;13.60;99.90
5842;DHT22;2947;52.276;9.946;2023-08-30T06:20:06;13.70;99.90
5842;DHT22;2947;52.276;9.946;2023-08-30T06:22:32;13.80;99.90
5842;DHT22;2947;52.276;9.946;2023-08-30T06:24:58;13.90;99.90
5842;DHT22;2947;52.276;9.946;2023-08-30T06:27:24;14.10;99.90
5842;DHT22;2947;52.276;9.946;2023-08-30T06:29:50;14.20;99.90
5842;DHT22;2947;52.276;9.946;2023-08-30T06:32:16;14.20;99.90
5842;DHT22;2947;52.276;9.946;2023-08-30T06:34:42;14.30;99.90
5842;DHT22;2947;52.276;9.946;2023-08-30T06:37:08;14.60;99.90
5842;DHT22;2947;52.276;9.946;2023-08-30T06:39:35;14.60;99.90
5842;DHT22;2947;52.276;9.946;2023-08-30T06:42:02;14.60;99.90
5842;DHT22;2947;52.276;9.946;2023-08-30T06:44:28;14.70;99.90
5842;DHT22;2947;52.276;9.946;2023-08-30T06:46:56;14.90;99.90
5842;DHT22;2947;52.276;9.946;2023-08-30T06:49:22;15.00;99.90
5842;DHT22;2947;52.276;9.946;2023-08-30T06:51:48;15.10;99.90
5842;DHT22;2947;52.276;9.946;2023-08-30T06:54:14;15.40;99.90
5842;DHT22;2947;52.276;9.946;2023-08-30T06:56:40;15.30;99.90
5842;DHT22;2947;52.276;9.946;2023-08-30T06:59:05;15.30;99.90
5842;DHT22;2947;52.276;9.946;2023-08-30T07:01:31;15.40;99.90
5842;DHT22;2947;52.276;9.946;2023-08-30T07:03:57;15.40;99.90
5842;DHT22;2947;52.276;9.946;2023-08-30T07:06:23;15.40;99.90
5842;DHT22;2947;52.276;9.946;2023-08-30T07:08:49;15.50;99.90
5842;DHT22;2947;52.276;9.946;2023-08-30T07:11:15;15.60;99.90
5842;DHT22;2947;52.276;9.946;2023-08-30T07:13:40;16.20;99.90
5842;DHT22;2947;52.276;9.946;2023-08-30T07:16:06;16.50;99.90
5842;DHT22;2947;52.276;9.946;2023-08-30T07:18:32;15.80;99.90
5842;DHT22;2947;52.276;9.946;2023-08-30T07:20:57;15.80;99.90
5842;DHT22;2947;52.276;9.946;2023-08-30T07:23:23;15.80;99.90
5842;DHT22;2947;52.276;9.946;2023-08-30T07:25:51;15.80;99.90
5842;DHT22;2947;52.276;9.946;2023-08-30T07:28:17;16.00;99.90
5842;DHT22;2947;52.276;9.946;2023-08-30T07:30:42;16.00;99.90
5842;DHT22;2947;52.276;9.946;2023-08-30T07:33:08;16.60;99.90
5842;DHT22;2947;52.276;9.946;2023-08-30T07:35:33;16.00;99.90
5842;DHT22;2947;52.276;9.946;2023-08-30T07:37:59;16.10;99.90
5842;DHT22;2947;52.276;9.946;2023-08-30T07:40:25;16.20;99.90
5842;DHT22;2947;52.276;9.946;2023-08-30T07:42:53;16.30;99.90
5842;DHT22;2947;52.276;9.946;2023-08-30T07:45:21;16.40;99.90
5842;DHT22;2947;52.276;9.946;2023-08-30T07:47:47;16.60;99.90
5842;DHT22;2947;52.276;9.946;2023-08-30T07:50:12;16.60;72.40
5842;DHT22;2947;52.276;9.946;2023-08-30T07:52:38;16.60;94.10
5842;DHT22;2947;52.276;9.946;2023-08-30T07:55:04;16.70;90.20
5842;DHT22;2947;52.276;9.946;2023-08-30T07:57:30;16.60;1.00
5842;DHT22;2947;52.276;9.946;2023-08-30T07:59:55;16.70;1.00
5842;DHT22;2947;52.276;9.946;2023-08-30T08:02:21;16.90;1.00
5842;DHT22;2947;52.276;9.946;2023-08-30T08:04:47;17.00;99.90
5842;DHT22;2947;52.276;9.946;2023-08-30T08:07:15;17.10;99.90
5842;DHT22;2947;52.276;9.946;2023-08-30T08:09:40;17.10;99.90
5842;DHT22;2947;52.276;9.946;2023-08-30T08:12:06;17.20;99.90
5842;DHT22;2947;52.276;9.946;2023-08-30T08:14:32;17.40;99.90
5842;DHT22;2947;52.276;9.946;2023-08-30T08:16:58;18.80;99.90
5842;DHT22;2947;52.276;9.946;2023-08-30T08:19:23;17.60;99.90
5842;DHT22;2947;52.276;9.946;2023-08-30T08:21:49;17.70;1.00
5842;DHT22;2947;52.276;9.946;2023-08-30T08:24:15;17.70;95.50
5842;DHT22;2947;52.276;9.946;2023-08-30T08:26:40;17.80;99.90
5842;DHT22;2947;52.276;9.946;2023-08-30T08:29:06;17.90;99.90
5842;DHT22;2947;52.276;9.946;2023-08-30T08:31:32;17.90;99.90
5842;DHT22;2947;52.276;9.946;2023-08-30T08:34:11;19.50;1.00
5842;DHT22;2947;52.276;9.946;2023-08-30T08:36:42;17.90;1.00
5842;DHT22;2947;52.276;9.946;2023-08-30T08:39:08;18.00;99.90
5842;DHT22;2947;52.276;9.946;2023-08-30T08:41:43;17.30;1.00
5842;DHT22;2947;52.276;9.946;2023-08-30T08:44:10;18.10;1.00
5842;DHT22;2947;52.276;9.946;2023-08-30T08:46:37;18.10;1.00
5842;DHT22;2947;52.276;9.946;2023-08-30T08:49:09;18.20;1.00
5842;DHT22;2947;52.276;9.946;2023-08-30T08:51:37;18.40;1.00
5842;DHT22;2947;52.276;9.946;2023-08-30T08:54:04;18.50;18.20
5842;DHT22;2947;52.276;9.946;2023-08-30T08:56:32;18.50;1.00
5842;DHT22;2947;52.276;9.946;2023-08-30T08:58:58;18.60;1.00
5842;DHT22;2947;52.276;9.946;2023-08-30T09:01:24;18.60;99.90
5842;DHT22;2947;52.276;9.946;2023-08-30T09:03:51;18.60;1.00
5842;DHT22;2947;52.276;9.946;2023-08-30T09:06:17;18.60;99.90
5842;DHT22;2947;52.276;9.946;2023-08-30T09:08:43;18.60;99.90
5842;DHT22;2947;52.276;9.946;2023-08-30T09:11:09;18.60;1.00
5842;DHT22;2947;52.276;9.946;2023-08-30T09:13:35;18.60;1.00
5842;DHT22;2947;52.276;9.946;2023-08-30T09:16:01;18.70;99.90
5842;DHT22;2947;52.276;9.946;2023-08-30T09:18:28;18.70;99.90
5842;DHT22;2947;52.276;9.946;2023-08-30T09:21:13;18.80;99.90
5842;DHT22;2947;52.276;9.946;2023-08-30T09:23:39;18.80;99.90
5842;DHT22;2947;52.276;9.946;2023-08-30T09:26:05;18.90;1.00
5842;DHT22;2947;52.276;9.946;2023-08-30T09:28:31;19.70;1.00
5842;DHT22;2947;52.276;9.946;2023-08-30T09:30:58;19.10;99.90
5842;DHT22;2947;52.276;9.946;2023-08-30T09:33:33;19.10;99.90
5842;DHT22;2947;52.276;9.946;2023-08-30T09:35:59;20.20;99.90
5842;DHT22;2947;52.276;9.946;2023-08-30T09:38:26;19.30;99.90
5842;DHT22;2947;52.276;9.946;2023-08-30T09:41:02;19.40;99.90
5842;DHT22;2947;52.276;9.946;2023-08-30T09:43:29;19.40;1.00
5842;DHT22;2947;52.276;9.946;2023-08-30T09:45:55;19.70;1.00
5842;DHT22;2947;52.276;9.946;2023-08-30T09:48:27;19.70;99.90
5842;DHT22;2947;52.276;9.946;2023-08-30T09:50:54;20.80;99.90
5842;DHT22;2947;52.276;9.946;2023-08-30T09:53:21;21.00;99.90
5842;DHT22;2947;52.276;9.946;2023-08-30T09:55:52;20.00;1.00
5842;DHT22;2947;52.276;9.946;2023-08-30T09:58:18;20.10;1.00
5842;DHT22;2947;52.276;9.946;2023-08-30T10:00:44;20.20;25.20
5842;DHT22;2947;52.276;9.946;2023-08-30T10:03:10;20.40;1.00
5842;DHT22;2947;52.276;9.946;2023-08-30T10:05:37;19.70;2.30
5842;DHT22;2947;52.276;9.946;2023-08-30T10:08:04;20.60;1.00
5842;DHT22;2947;52.276;9.946;2023-08-30T10:10:32;20.70;1.00
5842;DHT22;2947;52.276;9.946;2023-08-30T10:13:00;20.80;1.00
5842;DHT22;2947;52.276;9.946;2023-08-30T10:15:27;20.70;99.90
5842;DHT22;2947;52.276;9.946;2023-08-30T10:17:58;20.60;99.90
5842;DHT22;2947;52.276;9.946;2023-08-30T10:20:24;20.70;99.90
5842;DHT22;2947;52.276;9.946;2023-08-30T10:22:51;20.90;99.90
5842;DHT22;2947;52.276;9.946;2023-08-30T10:25:21;21.50;99.90
5842;DHT22;2947;52.276;9.946;2023-08-30T10:27:50;20.80;99.90
5842;DHT22;2947;52.276;9.946;2023-08-30T10:30:19;20.80;99.90
5842;DHT22;2947;52.276;9.946;2023-08-30T10:32:46;20.80;99.90
5842;DHT22;2947;52.276;9.946;2023-08-30T10:35:17;20.90;99.90
5842;DHT22;2947;52.276;9.946;2023-08-30T10:37:54;20.90;99.90
5842;DHT22;2947;52.276;9.946;2023-08-30T10:40:21;21.00;99.90
5842;DHT22;2947;52.276;9.946;2023-08-30T10:43:08;20.90;99.90
5842;DHT22;2947;52.276;9.946;2023-08-30T10:45:33;21.00;99.90
5842;DHT22;2947;52.276;9.946;2023-08-30T10:47:59;21.80;91.30
5842;DHT22;2947;52.276;9.946;2023-08-30T10:50:30;20.80;90.50
5842;DHT22;2947;52.276;9.946;2023-08-30T10:52:57;21.00;99.90
5842;DHT22;2947;52.276;9.946;2023-08-30T10:55:23;21.00;99.90
5842;DHT22;2947;52.276;9.946;2023-08-30T10:58:02;21.00;47.60
5842;DHT22;2947;52.276;9.946;2023-08-30T11:00:30;21.00;37.40
5842;DHT22;2947;52.276;9.946;2023-08-30T11:02:57;20.90;51.10
5842;DHT22;2947;52.276;9.946;2023-08-30T11:05:24;20.80;1.00
5842;DHT22;2947;52.276;9.946;2023-08-30T11:07:51;20.90;1.00
5842;DHT22;2947;52.276;9.946;2023-08-30T11:10:18;20.90;1.00
5842;DHT22;2947;52.276;9.946;2023-08-30T11:12:45;21.10;1.00
5842;DHT22;2947;52.276;9.946;2023-08-30T11:15:13;21.70;30.20
5842;DHT22;2947;52.276;9.946;2023-08-30T11:17:40;20.20;1.00
5842;DHT22;2947;52.276;9.946;2023-08-30T11:20:11;21.10;1.00
5842;DHT22;2947;52.276;9.946;2023-08-30T11:22:46;21.10;1.00
5842;DHT22;2947;52.276;9.946;2023-08-30T11:25:14;21.10;1.00
5842;DHT22;2947;52.276;9.946;2023-08-30T11:27:41;21.40;1.00
5842;DHT22;2947;52.276;9.946;2023-08-30T11:30:08;21.40;1.00
5842;DHT22;2947;52.276;9.946;2023-08-30T11:32:41;21.30;1.00
5842;DHT22;2947;52.276;9.946;2023-08-30T11:35:11;21.30;1.00
5842;DHT22;2947;52.276;9.946;2023-08-30T11:37:37;21.10;1.00
5842;DHT22;2947;52.276;9.946;2023-08-30T11:40:04;22.00;1.00
5842;DHT22;2947;52.276;9.946;2023-08-30T11:42:31;21.10;1.00
5842;DHT22;2947;52.276;9.946;2023-08-30T11:44:58;21.10;1.00
5842;DHT22;2947;52.276;9.946;2023-08-30T11:47:30;21.60;1.00
5842;DHT22;2947;52.276;9.946;2023-08-30T11:49:56;21.00;1.00
5842;DHT22;2947;52.276;9.946;2023-08-30T11:52:23;21.10;1.00
5842;DHT22;2947;52.276;9.946;2023-08-30T11:54:50;20.90;1.00
5842;DHT22;2947;52.276;9.946;2023-08-30T11:57:16;20.80;1.00
5842;DHT22;2947;52.276;9.946;2023-08-30T11:59:42;20.70;1.00
5842;DHT22;2947;52.276;9.946;2023-08-30T12:02:08;20.60;1.00
5842;DHT22;2947;52.276;9.946;2023-08-30T12:04:41;20.50;1.00
5842;DHT22;2947;52.276;9.946;2023-08-30T12:07:08;20.40;1.00
5842;DHT22;2947;52.276;9.946;2023-08-30T12:09:34;20.30;1.00
5842;DHT22;2947;52.276;9.946;2023-08-30T12:12:10;20.30;1.00
5842;DHT22;2947;52.276;9.946;2023-08-30T12:14:37;20.20;1.00
5842;DHT22;2947;52.276;9.946;2023-08-30T12:17:03;21.10;1.00
5842;DHT22;2947;52.276;9.946;2023-08-30T12:19:31;20.30;1.00
5842;DHT22;2947;52.276;9.946;2023-08-30T12:22:06;20.40;35.80
5842;DHT22;2947;52.276;9.946;2023-08-30T12:24:45;20.40;12.50
5842;DHT22;2947;52.276;9.946;2023-08-30T12:27:12;20.60;33.90
5842;DHT22;2947;52.276;9.946;2023-08-30T12:29:39;20.80;8.30
5842;DHT22;2947;52.276;9.946;2023-08-30T12:32:06;20.90;18.70
5842;DHT22;2947;52.276;9.946;2023-08-30T12:34:32;21.10;1.00
5842;DHT22;2947;52.276;9.946;2023-08-30T12:36:57;21.10;1.00
5842;DHT22;2947;52.276;9.946;2023-08-30T12:39:24;21.20;1.00
5842;DHT22;2947;52.276;9.946;2023-08-30T12:41:50;21.30;1.00
5842;DHT22;2947;52.276;9.946;2023-08-30T12:44:15;21.30;1.00
5842;DHT22;2947;52.276;9.946;2023-08-30T12:46:41;21.60;1.00
5842;DHT22;2947;52.276;9.946;2023-08-30T12:49:06;21.60;1.00
5842;DHT22;2947;52.276;9.946;2023-08-30T12:51:32;21.80;1.00
5842;DHT22;2947;52.276;9.946;2023-08-30T12:53:58;21.90;1.00
5842;DHT22;2947;52.276;9.946;2023-08-30T12:56:23;22.10;1.00
5842;DHT22;2947;52.276;9.946;2023-08-30T12:58:49;22.80;1.00
5842;DHT22;2947;52.276;9.946;2023-08-30T13:01:16;22.10;1.00
5842;DHT22;2947;52.276;9.946;2023-08-30T13:03:42;22.20;1.00
5842;DHT22;2947;52.276;9.946;2023-08-30T13:06:07;22.30;1.00
5842;DHT22;2947;52.276;9.946;2023-08-30T13:08:33;22.30;1.00
5842;DHT22;2947;52.276;9.946;2023-08-30T13:11:00;23.60;1.00
5842;DHT22;2947;52.276;9.946;2023-08-30T13:13:25;22.30;1.00
5842;DHT22;2947;52.276;9.946;2023-08-30T13:15:51;22.20;1.00
5842;DHT22;2947;52.276;9.946;2023-08-30T13:18:17;22.10;1.00
5842;DHT22;2947;52.276;9.946;2023-08-30T13:20:43;22.10;1.00
5842;DHT22;2947;52.276;9.946;2023-08-30T13:23:09;22.60;1.00
5842;DHT22;2947;52.276;9.946;2023-08-30T13:25:38;22.10;1.00
5842;DHT22;2947;52.276;9.946;2023-08-30T13:28:07;22.00;1.00
5842;DHT22;2947;52.276;9.946;2023-08-30T13:30:33;21.90;1.00
5842;DHT22;2947;52.276;9.946;2023-08-30T13:32:59;22.10;1.00
5842;DHT22;2947;52.276;9.946;2023-08-30T13:35:25;22.00;1.00
5842;DHT22;2947;52.276;9.946;2023-08-30T13:37:50;22.00;1.00
5842;DHT22;2947;52.276;9.946;2023-08-30T13:40:16;22.00;1.00
5842;DHT22;2947;52.276;9.946;2023-08-30T13:42:42;22.10;1.00
5842;DHT22;2947;52.276;9.946;2023-08-30T13:45:08;22.00;1.00
5842;DHT22;2947;52.276;9.946;2023-08-30T13:47:35;22.00;1.00
5842;DHT22;2947;52.276;9.946;2023-08-30T13:50:01;21.80;1.00
5842;DHT22;2947;52.276;9.946;2023-08-30T13:52:29;22.60;1.00
5842;DHT22;2947;52.276;9.946;2023-08-30T13:54:55;21.70;1.00
5842;DHT22;2947;52.276;9.946;2023-08-30T13:57:21;21.70;1.00
5842;DHT22;2947;52.276;9.946;2023-08-30T13:59:47;21.70;1.00
5842;DHT22;2947;52.276;9.946;2023-08-30T14:02:13;21.60;1.00
5842;DHT22;2947;52.276;9.946;2023-08-30T14:04:39;21.60;1.00
5842;DHT22;2947;52.276;9.946;2023-08-30T14:07:04;21.50;1.00
5842;DHT22;2947;52.276;9.946;2023-08-30T14:09:30;21.50;1.00
5842;DHT22;2947;52.276;9.946;2023-08-30T14:11:56;21.40;1.00
5842;DHT22;2947;52.276;9.946;2023-08-30T14:14:22;21.40;1.00
5842;DHT22;2947;52.276;9.946;2023-08-30T14:16:47;21.40;1.00
5842;DHT22;2947;52.276;9.946;2023-08-30T14:19:15;21.50;1.00
5842;DHT22;2947;52.276;9.946;2023-08-30T14:21:41;21.40;1.00
5842;DHT22;2947;52.276;9.946;2023-08-30T14:24:08;21.40;1.00
5842;DHT22;2947;52.276;9.946;2023-08-30T14:26:34;21.30;1.00
5842;DHT22;2947;52.276;9.946;2023-08-30T14:29:00;21.30;1.00
5842;DHT22;2947;52.276;9.946;2023-08-30T14:31:26;21.30;1.00
5842;DHT22;2947;52.276;9.946;2023-08-30T14:33:55;21.60;1.00
5842;DHT22;2947;52.276;9.946;2023-08-30T14:36:22;22.20;1.00
5842;DHT22;2947;52.276;9.946;2023-08-30T14:38:48;21.20;1.00
5842;DHT22;2947;52.276;9.946;2023-08-30T14:41:14;21.20;1.00
5842;DHT22;2947;52.276;9.946;2023-08-30T14:43:41;21.30;1.00
5842;DHT22;2947;52.276;9.946;2023-08-30T14:46:07;21.30;1.00
5842;DHT22;2947;52.276;9.946;2023-08-30T14:48:33;21.30;1.00
5842;DHT22;2947;52.276;9.946;2023-08-30T14:51:00;21.20;1.00
5842;DHT22;2947;52.276;9.946;2023-08-30T14:53:26;21.20;1.00
5842;DHT22;2947;52.276;9.946;2023-08-30T14:55:52;22.40;1.00
5842;DHT22;2947;52.276;9.946;2023-08-30T14:58:18;21.30;1.00
5842;DHT22;2947;52.276;9.946;2023-08-30T15:00:46;21.20;1.00
5842;DHT22;2947;52.276;9.946;2023-08-30T15:03:12;21.40;1.00
5842;DHT22;2947;52.276;9.946;2023-08-30T15:05:38;21.30;1.00
5842;DHT22;2947;52.276;9.946;2023-08-30T15:08:05;21.30;1.00
5842;DHT22;2947;52.276;9.946;2023-08-30T15:10:31;21.30;1.00
5842;DHT22;2947;52.276;9.946;2023-08-30T15:12:57;21.20;1.00
5842;DHT22;2947;52.276;9.946;2023-08-30T15:15:23;21.20;1.00
5842;DHT22;2947;52.276;9.946;2023-08-30T15:17:49;22.30;1.00
5842;DHT22;2947;52.276;9.946;2023-08-30T15:20:14;21.10;1.00
5842;DHT22;2947;52.276;9.946;2023-08-30T15:22:40;20.90;1.00
5842;DHT22;2947;52.276;9.946;2023-08-30T15:25:06;20.90;1.00
5842;DHT22;2947;52.276;9.946;2023-08-30T15:27:34;20.80;1.00
5842;DHT22;2947;52.276;9.946;2023-08-30T15:30:00;20.90;1.00
5842;DHT22;2947;52.276;9.946;2023-08-30T15:32:26;21.00;1.00
5842;DHT22;2947;52.276;9.946;2023-08-30T15:34:54;21.00;1.00
5842;DHT22;2947;52.276;9.946;2023-08-30T15:37:20;21.10;1.00
5842;DHT22;2947;52.276;9.946;2023-08-30T15:39:46;21.10;1.00
5842;DHT22;2947;52.276;9.946;2023-08-30T15:42:13;21.10;1.00
5842;DHT22;2947;52.276;9.946;2023-08-30T15:44:39;20.90;1.00
5842;DHT22;2947;52.276;9.946;2023-08-30T15:47:05;20.80;1.00
5842;DHT22;2947;52.276;9.946;2023-08-30T15:49:30;20.70;1.00
5842;DHT22;2947;52.276;9.946;2023-08-30T15:51:57;20.70;1.00
5842;DHT22;2947;52.276;9.946;2023-08-30T15:54:22;20.80;1.00
5842;DHT22;2947;52.276;9.946;2023-08-30T15:56:48;20.60;1.00
5842;DHT22;2947;52.276;9.946;2023-08-30T15:59:14;20.50;1.00
5842;DHT22;2947;52.276;9.946;2023-08-30T16:01:39;20.40;1.00
5842;DHT22;2947;52.276;9.946;2023-08-30T16:04:05;20.70;1.00
5842;DHT22;2947;52.276;9.946;2023-08-30T16:06:31;20.20;92.90
5842;DHT22;2947;52.276;9.946;2023-08-30T16:08:57;20.00;99.90
5842;DHT22;2947;52.276;9.946;2023-08-30T16:11:22;20.70;1.00